»·PEaware :: UAL870 YSSY-KSFO

UAL870 :: YSSY-KSFO

FLIGHT INFORMATION

Flight Status: Arrived
Operator:
United Airlines
More flights by this operator :: More flights under this callsign
Pilot: Andrew J. (13363)
Aircraft: Unknown
(B789)
More flights by this aircraft type
Origin: YSSY Kingsford Smith Intl
Australia
Destination: KSFO San Francisco Intl
United States
More flights between these airports :: More routes between these airports
Route: ENTRA H133 MATLA Y43 BANDA CBULA 28S160E 27S163E 25S170E 22S180E TV 15S169W 10S164W 05S159W/N0496F370 00N155W 05N151W 10N147W 15N142W 20N137W 25N133W 30N129W CINNY PIRAT OSI
File this flight plan on PilotEdge
Remarks:
Altitude:
(Current/Filed)
39,000ft
Speed:
(Current/Filed)
506kts
Departed: 29-Jan-19 01:35 PM
Arrived: 29-Jan-19 02:34 PM
Distance/Time
Traveled:
6447nm/0:59
Distance/Time
To Go:
Arrived

Flight Plot

Page will automatically refresh every two minutes.

Flight plan parsing failed; only flown route is shown


Map Options




Map Legend


Flown Route
Filed Route
Departure Airport
Arrival Airport
Navaid (VOR, NDB)
Fix

Horizontal Profiles

Position Reports

Time Latitude Longitude Heading Altitude Ground
Speed
29-Jan-19 13:33 32.873501 -127.115191 24 39097ft 496kts
29-Jan-19 13:34 32.993532 -127.033464 25 39085ft 496kts
29-Jan-19 13:35 33.113085 -126.951796 25 39083ft 496kts
29-Jan-19 13:36 33.232431 -126.869910 25 39071ft 495kts
29-Jan-19 13:37 33.352191 -126.787519 25 39070ft 495kts
29-Jan-19 13:38 33.471343 -126.705422 25 39078ft 495kts
29-Jan-19 13:39 33.591043 -126.622602 25 39073ft 495kts
29-Jan-19 13:40 33.710055 -126.539954 25 39065ft 495kts
29-Jan-19 13:41 33.829489 -126.456819 25 39067ft 495kts
29-Jan-19 13:42 33.948360 -126.373772 25 39077ft 495kts
29-Jan-19 13:43 34.067091 -126.290460 26 39079ft 494kts
29-Jan-19 13:44 34.186160 -126.206733 26 39071ft 494kts
29-Jan-19 13:45 34.304810 -126.123067 26 39066ft 494kts
29-Jan-19 13:46 34.423716 -126.038884 26 39064ft 494kts
29-Jan-19 13:47 34.542262 -125.954588 26 39070ft 494kts
29-Jan-19 13:48 34.660825 -125.870148 26 39049ft 495kts
29-Jan-19 13:49 34.779843 -125.784986 26 39066ft 495kts
29-Jan-19 13:50 34.898512 -125.699810 26 39074ft 496kts
29-Jan-19 13:51 35.017532 -125.614169 26 39074ft 496kts
29-Jan-19 13:52 35.136210 -125.528417 26 39083ft 496kts
29-Jan-19 13:53 35.254794 -125.442461 26 39079ft 496kts
29-Jan-19 13:54 35.373715 -125.355905 26 39065ft 496kts
29-Jan-19 13:55 35.492345 -125.269328 26 39074ft 497kts
29-Jan-19 13:56 35.612071 -125.181691 26 39074ft 502kts
29-Jan-19 13:57 35.731731 -125.093650 26 39067ft 501kts
29-Jan-19 13:58 35.851297 -125.005483 26 39065ft 502kts
29-Jan-19 13:59 35.971146 -124.916734 26 39071ft 501kts
29-Jan-19 14:00 36.064294 -124.847553 26 39077ft 501kts
29-Jan-19 14:01 36.172383 -124.752435 42 39091ft 509kts
29-Jan-19 14:02 36.264008 -124.617145 49 39072ft 515kts
29-Jan-19 14:04 36.348286 -124.473079 50 38501ft 521kts
29-Jan-19 14:05 36.432447 -124.327190 50 36704ft 513kts
29-Jan-19 14:06 36.514575 -124.184248 51 34215ft 505kts
29-Jan-19 14:07 36.595450 -124.042943 50 31648ft 495kts
29-Jan-19 14:08 36.674150 -123.904937 50 29262ft 483kts
29-Jan-19 14:09 36.750524 -123.770363 50 27034ft 468kts
29-Jan-19 14:10 36.824569 -123.639501 50 24831ft 454kts
29-Jan-19 14:11 36.896151 -123.512484 50 22635ft 441kts
29-Jan-19 14:12 36.965421 -123.388910 50 20635ft 425kts
29-Jan-19 14:13 37.031977 -123.270001 50 18639ft 410kts
29-Jan-19 14:14 37.096082 -123.155023 50 16503ft 397kts
29-Jan-19 14:15 37.158301 -123.043026 50 14357ft 383kts
29-Jan-19 14:16 37.217616 -122.935928 50 12364ft 366kts
29-Jan-19 14:17 37.265117 -122.827507 69 11049ft 340kts
29-Jan-19 14:18 37.291695 -122.716886 69 11006ft 320kts
29-Jan-19 14:19 37.316423 -122.611180 70 11014ft 313kts
29-Jan-19 14:20 37.340749 -122.506247 70 11003ft 310kts
29-Jan-19 14:21 37.364483 -122.403373 70 9563ft 301kts
29-Jan-19 14:22 37.371465 -122.302169 93 8149ft 289kts
29-Jan-19 14:23 37.363133 -122.203039 93 6707ft 281kts
29-Jan-19 14:23 37.356400 -122.122799 93 6034ft 269kts
29-Jan-19 14:25 37.375216 -122.031871 24 6034ft 243kts
29-Jan-19 14:26 37.432581 -122.021335 323 6032ft 212kts
29-Jan-19 14:26 37.471705 -122.059127 323 5471ft 207kts
29-Jan-19 14:27 37.508551 -122.112068 299 4284ft 199kts
29-Jan-19 14:28 37.533336 -122.171987 299 3262ft 187kts
29-Jan-19 14:30 37.560517 -122.236576 298 2156ft 159kts
29-Jan-19 14:30 37.577129 -122.275926 299 1481ft 149kts
29-Jan-19 14:31 37.596318 -122.321801 300 698ft 148kts
29-Jan-19 14:32 37.615680 -122.367734 298 26ft 138kts
29-Jan-19 14:33 37.621609 -122.382940 226 25ft 11kts
29-Jan-19 14:34 37.620523 -122.384094 297 25ft 8kts
29-Jan-19 14:35 37.622132 -122.387961 299 25ft 7kts
29-Jan-19 14:36 37.622512 -122.390081 252 25ft 14kts
29-Jan-19 14:37 37.619700 -122.392202 140 25ft 4kts
29-Jan-19 14:38 37.618926 -122.392529 207 25ft 1kts
29-Jan-19 14:39 37.618897 -122.392548 207 25ft 0kts
29-Jan-19 14:40 37.618897 -122.392548 207 25ft 0kts
29-Jan-19 14:41 37.618897 -122.392548 207 25ft 0kts
29-Jan-19 14:42 37.618897 -122.392548 207 25ft 0kts

Navigation Log

Ident Type
Flight plan parsing failed, navigation log unavailable